createdAt,value
2023-09-10T00:01:38.200Z,95239.53
2023-09-10T00:04:46.974Z,95246.78
2023-09-10T00:07:56.911Z,95236.47
2023-09-10T00:11:06.802Z,95242.31
2023-09-10T00:14:15.393Z,95238.81
2023-09-10T00:17:24.171Z,95234.50
2023-09-10T00:20:32.762Z,95234.94
2023-09-10T00:23:42.614Z,95234.03
2023-09-10T00:26:51.108Z,95239.03
2023-09-10T00:29:59.652Z,95228.28
2023-09-10T00:33:08.175Z,95231.19
2023-09-10T00:36:17.126Z,95230.84
2023-09-10T00:39:26.987Z,95225.09
2023-09-10T00:42:35.506Z,95235.88
2023-09-10T00:45:44.269Z,95237.16
2023-09-10T00:48:53.082Z,95232.47
2023-09-10T00:52:02.676Z,95220.88
2023-09-10T00:55:13.352Z,95220.56
2023-09-10T00:58:22.055Z,95226.59
2023-09-10T01:01:31.493Z,95229.38
2023-09-10T01:04:40.284Z,95228.34
2023-09-10T01:07:48.949Z,95233.25
2023-09-10T01:11:09.896Z,95233.03
2023-09-10T01:14:23.081Z,95224.75
2023-09-10T01:17:38.918Z,95229.66
2023-09-10T01:21:06.831Z,95225.69
2023-09-10T01:24:22.867Z,95223.59
2023-09-10T01:27:32.859Z,95227.88
2023-09-10T01:30:41.604Z,95222.13
2023-09-10T01:33:56.385Z,95220.50
2023-09-10T01:37:12.579Z,95217.91
2023-09-10T01:40:26.658Z,95215.56
2023-09-10T01:43:37.236Z,95218.03
2023-09-10T01:46:48.369Z,95221.97
2023-09-10T01:49:57.853Z,95222.22
2023-09-10T01:53:06.573Z,95222.81
2023-09-10T01:56:15.946Z,95229.50
2023-09-10T01:59:27.155Z,95227.03
2023-09-10T02:02:36.347Z,95232.50
2023-09-10T02:05:45.771Z,95226.81
2023-09-10T02:08:54.633Z,95232.50
2023-09-10T02:12:03.282Z,95240.41
2023-09-10T02:15:15.352Z,95235.53
2023-09-10T02:18:27.717Z,95232.50
2023-09-10T02:21:36.387Z,95235.88
2023-09-10T02:24:51.185Z,95237.16
2023-09-10T02:27:59.757Z,95235.38
2023-09-10T02:31:10.216Z,95239.69
2023-09-10T02:34:19.334Z,95236.56
2023-09-10T02:37:29.637Z,95238.66
2023-09-10T02:40:38.454Z,95241.34
2023-09-10T02:43:47.073Z,95228.38
2023-09-10T02:46:57.039Z,95227.19
2023-09-10T02:50:06.362Z,95221.91
2023-09-10T02:53:15.122Z,95229.03
2023-09-10T02:56:23.832Z,95229.47
2023-09-10T02:59:32.624Z,95231.56
2023-09-10T03:02:42.887Z,95222.91
2023-09-10T03:05:51.643Z,95223.38
2023-09-10T03:09:00.393Z,95232.50
2023-09-10T03:12:29.078Z,95242.03
2023-09-10T03:15:39.744Z,95238.31
2023-09-10T03:18:49.802Z,95234.34
2023-09-10T03:21:58.558Z,95234.13
2023-09-10T03:25:08.019Z,95236.66
2023-09-10T03:28:16.907Z,95238.41
2023-09-10T03:31:25.694Z,95230.56
2023-09-10T03:34:36.510Z,95233.84
2023-09-10T03:37:45.275Z,95228.47
2023-09-10T03:40:54.300Z,95225.19
2023-09-10T03:44:03.851Z,95229.59
2023-09-10T03:47:12.882Z,95229.81
2023-09-10T03:50:23.350Z,95229.22
2023-09-10T03:53:32.079Z,95231.91
2023-09-10T03:56:41.142Z,95237.75
2023-09-10T03:59:49.969Z,95226.84
2023-09-10T04:02:59.368Z,95234.16
2023-09-10T04:06:09.397Z,95229.50
2023-09-10T04:09:17.961Z,95233.00
2023-09-10T04:12:26.588Z,95230.75
2023-09-10T04:15:35.249Z,95226.28
2023-09-10T04:18:47.257Z,95225.09
2023-09-10T04:21:57.780Z,95231.72
2023-09-10T04:25:07.366Z,95240.44
2023-09-10T04:28:16.281Z,95238.81
2023-09-10T04:31:25.061Z,95242.53
2023-09-10T04:34:33.936Z,95238.44
2023-09-10T04:37:44.300Z,95246.50
2023-09-10T04:40:53.011Z,95239.28
2023-09-10T04:44:01.963Z,95247.31
2023-09-10T04:47:10.728Z,95244.09
2023-09-10T04:50:19.571Z,95241.19
2023-09-10T04:53:29.963Z,95252.38
2023-09-10T04:56:38.834Z,95256.13
2023-09-10T04:59:48.234Z,95259.25
2023-09-10T05:02:57.569Z,95259.44
2023-09-10T05:06:08.670Z,95258.19
2023-09-10T05:09:18.827Z,95261.47
2023-09-10T05:12:27.451Z,95261.00
2023-09-10T05:15:36.162Z,95269.38
2023-09-10T05:18:44.830Z,95269.75
2023-09-10T05:21:54.179Z,95269.19
2023-09-10T05:25:04.406Z,95273.09
2023-09-10T05:28:13.048Z,95267.63
2023-09-10T05:31:21.846Z,95261.28
2023-09-10T05:34:30.691Z,95271.00
2023-09-10T05:37:40.080Z,95278.38
2023-09-10T05:40:50.733Z,95282.47
2023-09-10T05:43:59.456Z,95285.13
2023-09-10T05:47:08.610Z,95284.59
2023-09-10T05:50:17.418Z,95285.16
2023-09-10T05:53:26.605Z,95271.97
2023-09-10T05:56:37.971Z,95278.31
2023-09-10T05:59:46.974Z,95272.63
2023-09-10T06:02:55.921Z,95280.22
2023-09-10T06:06:04.653Z,95279.94
2023-09-10T06:09:13.487Z,95286.91
2023-09-10T06:12:25.620Z,95280.50
2023-09-10T06:15:34.647Z,95287.22
2023-09-10T06:18:43.394Z,95283.72
2023-09-10T06:21:52.205Z,95293.53
2023-09-10T06:25:02.381Z,95291.66
2023-09-10T06:28:12.728Z,95281.75
2023-09-10T06:31:21.431Z,95291.63
2023-09-10T06:34:30.268Z,95287.88
2023-09-10T06:37:40.763Z,95289.19
2023-09-10T06:40:49.803Z,95288.44
2023-09-10T06:43:59.946Z,95283.34
2023-09-10T06:47:11.763Z,95286.59
2023-09-10T06:50:20.691Z,95286.34
2023-09-10T06:53:29.313Z,95283.25
2023-09-10T07:00:23.001Z,95282.78
2023-09-10T07:03:33.260Z,95286.72
2023-09-10T07:06:41.975Z,95290.53
2023-09-10T07:09:50.551Z,95285.25
2023-09-10T07:12:59.086Z,95292.59
2023-09-10T07:16:09.049Z,95280.81
2023-09-10T07:19:17.851Z,95279.06
2023-09-10T07:22:26.927Z,95279.34
2023-09-10T07:25:35.447Z,95286.31
2023-09-10T07:28:44.087Z,95284.19
2023-09-10T07:31:54.079Z,95285.25
2023-09-10T07:35:04.041Z,95284.69
2023-09-10T07:38:13.510Z,95289.00
2023-09-10T07:41:22.098Z,95291.13
2023-09-10T07:44:32.247Z,95292.53
2023-09-10T07:47:42.726Z,95290.97
2023-09-10T07:50:57.735Z,95287.66
2023-09-10T07:54:06.612Z,95294.06
2023-09-10T07:57:18.048Z,95287.31
2023-09-10T08:00:26.869Z,95281.69
2023-09-10T08:03:38.160Z,95287.03
2023-09-10T08:06:47.557Z,95278.25
2023-09-10T08:09:56.042Z,95282.50
2023-09-10T08:13:07.558Z,95283.28
2023-09-10T08:16:16.814Z,95285.34
2023-09-10T08:19:26.892Z,95279.94
2023-09-10T08:22:36.001Z,95287.19
2023-09-10T08:25:44.770Z,95292.91
2023-09-10T08:28:53.587Z,95285.75
2023-09-10T08:32:02.452Z,95277.94
2023-09-10T08:35:13.205Z,95281.88
2023-09-10T08:38:22.036Z,95277.28
2023-09-10T08:41:36.896Z,95283.47
2023-09-10T08:44:48.857Z,95282.63
2023-09-10T08:47:59.076Z,95283.72
2023-09-10T08:51:10.055Z,95281.59
2023-09-10T08:54:20.591Z,95274.25
2023-09-10T08:57:30.852Z,95273.94
2023-09-10T09:00:40.815Z,95278.44
2023-09-10T09:03:50.028Z,95269.28
2023-09-10T09:07:02.869Z,95272.81
2023-09-10T09:10:15.190Z,95274.28
2023-09-10T09:13:24.642Z,95282.19
2023-09-10T09:16:33.825Z,95272.13
2023-09-10T09:19:45.285Z,95272.56
2023-09-10T09:23:04.892Z,95272.00
2023-09-10T09:26:15.533Z,95265.72
2023-09-10T09:29:25.157Z,95267.59
2023-09-10T09:32:34.735Z,95260.66
2023-09-10T09:35:43.370Z,95268.38
2023-09-10T09:38:53.573Z,95267.38
2023-09-10T09:42:02.059Z,95261.47
2023-09-10T09:45:11.526Z,95258.00
2023-09-10T09:48:20.275Z,95267.56
2023-09-10T09:51:30.127Z,95261.59
2023-09-10T09:54:40.547Z,95263.34
2023-09-10T09:57:49.627Z,95263.97
2023-09-10T10:00:58.352Z,95259.38
2023-09-10T10:04:08.111Z,95257.47
2023-09-10T10:07:24.522Z,95253.44
2023-09-10T10:10:36.863Z,95251.28
2023-09-10T10:13:45.525Z,95253.63
2023-09-10T10:16:55.230Z,95257.47
2023-09-10T10:20:06.100Z,95251.00
2023-09-10T10:23:24.011Z,95249.66
2023-09-10T10:26:37.096Z,95245.69
2023-09-10T10:29:45.701Z,95248.56
2023-09-10T10:32:54.928Z,95240.16
2023-09-10T10:36:12.197Z,95240.81
2023-09-10T10:39:25.798Z,95230.00
2023-09-10T10:42:42.748Z,95233.31
2023-09-10T10:45:54.597Z,95235.03
2023-09-10T10:49:05.374Z,95237.91
2023-09-10T10:52:16.902Z,95235.34
2023-09-10T10:55:26.734Z,95239.16
2023-09-10T10:58:38.737Z,95239.47
2023-09-10T11:02:23.126Z,95228.25
2023-09-10T11:06:07.926Z,95230.38
2023-09-10T11:09:37.639Z,95229.28
2023-09-10T11:13:07.313Z,95224.44
2023-09-10T11:16:20.699Z,95232.25
2023-09-10T11:19:48.228Z,95219.66
2023-09-10T11:23:10.823Z,95221.19
2023-09-10T11:26:32.607Z,95215.59
2023-09-10T11:29:41.709Z,95221.47
2023-09-10T11:32:53.928Z,95205.75
2023-09-10T11:36:05.136Z,95212.06
2023-09-10T11:39:15.483Z,95206.81
2023-09-10T11:42:24.742Z,95205.09
2023-09-10T11:45:34.318Z,95211.22
2023-09-10T11:48:44.378Z,95209.19
2023-09-10T11:51:55.702Z,95212.53
2023-09-10T11:55:05.974Z,95207.19
2023-09-10T11:58:14.631Z,95205.34
2023-09-10T12:01:23.594Z,95203.03
2023-09-10T12:04:34.591Z,95208.41
2023-09-10T12:07:45.556Z,95204.94
2023-09-10T12:10:56.451Z,95197.06
2023-09-10T12:14:05.688Z,95200.22
2023-09-10T12:17:14.402Z,95202.53
2023-09-10T12:20:24.508Z,95197.69
2023-09-10T12:23:33.654Z,95199.88
2023-09-10T12:26:42.477Z,95189.97
2023-09-10T12:29:51.353Z,95186.88
2023-09-10T12:33:00.546Z,95185.94
2023-09-10T12:36:10.908Z,95185.13
2023-09-10T12:39:23.580Z,95190.47
2023-09-10T12:42:32.325Z,95189.34
2023-09-10T12:45:41.760Z,95180.25
2023-09-10T12:48:50.881Z,95178.00
2023-09-10T12:52:01.458Z,95176.78
2023-09-10T12:55:10.691Z,95174.72
2023-09-10T12:58:20.112Z,95175.53
2023-09-10T13:01:28.601Z,95173.53
2023-09-10T13:04:37.696Z,95170.91
2023-09-10T13:07:48.032Z,95164.84
2023-09-10T13:10:56.707Z,95175.38
2023-09-10T13:14:05.433Z,95164.28
2023-09-10T13:17:14.194Z,95165.75
2023-09-10T13:20:25.095Z,95168.78
2023-09-10T13:23:36.180Z,95157.09
2023-09-10T13:26:44.766Z,95159.19
2023-09-10T13:29:53.357Z,95149.56
2023-09-10T13:33:03.238Z,95156.25
2023-09-10T13:36:11.924Z,95153.00
2023-09-10T13:39:22.159Z,95147.97
2023-09-10T13:42:30.897Z,95157.50
2023-09-10T13:45:39.503Z,95149.41
2023-09-10T13:48:49.268Z,95160.06
2023-09-10T13:51:57.970Z,95167.97
2023-09-10T13:55:09.276Z,95157.91
2023-09-10T13:58:17.945Z,95159.56
2023-09-10T14:01:26.653Z,95156.50
2023-09-10T14:04:35.505Z,95156.09
2023-09-10T14:07:44.459Z,95151.41
2023-09-10T14:10:54.328Z,95152.44
2023-09-10T14:14:03.689Z,95153.75
2023-09-10T14:17:12.365Z,95154.66
2023-09-10T14:20:21.088Z,95157.69
2023-09-10T14:23:31.800Z,95150.69
2023-09-10T14:26:42.142Z,95150.63
2023-09-10T14:29:50.770Z,95152.75
2023-09-10T14:32:59.522Z,95151.75
2023-09-10T14:36:08.539Z,95150.72
2023-09-10T14:39:18.525Z,95140.88
2023-09-10T14:42:28.702Z,95149.59
2023-09-10T14:45:38.310Z,95143.63
2023-09-10T14:48:47.926Z,95143.75
2023-09-10T14:51:56.895Z,95145.03
2023-09-10T14:55:08.007Z,95139.09
2023-09-10T14:58:18.002Z,95136.44
2023-09-10T15:01:26.795Z,95142.03
2023-09-10T15:04:35.694Z,95142.72
2023-09-10T15:07:44.361Z,95141.63
2023-09-10T15:10:53.942Z,95139.06
2023-09-10T15:14:04.219Z,95145.56
2023-09-10T15:17:12.979Z,95136.16
2023-09-10T15:20:21.751Z,95139.69
2023-09-10T15:23:30.713Z,95139.44
2023-09-10T15:26:40.267Z,95135.97
2023-09-10T15:29:53.100Z,95129.22
2023-09-10T15:33:02.561Z,95127.88
2023-09-10T15:36:11.556Z,95127.47
2023-09-10T15:39:21.319Z,95133.13
2023-09-10T15:42:33.244Z,95123.09
2023-09-10T15:45:43.325Z,95117.13
2023-09-10T15:48:53.418Z,95121.75
2023-09-10T15:52:02.272Z,95121.34
2023-09-10T15:55:11.098Z,95124.97
2023-09-10T15:58:23.469Z,95121.59
2023-09-10T16:01:38.316Z,95114.19
2023-09-10T16:04:49.013Z,95115.34
2023-09-10T16:07:59.270Z,95117.47
2023-09-10T16:11:10.204Z,95110.03
2023-09-10T16:14:20.011Z,95113.53
2023-09-10T16:17:29.994Z,95111.84
2023-09-10T16:20:38.900Z,95115.25
2023-09-10T16:23:47.975Z,95114.19
2023-09-10T16:26:57.230Z,95120.59
2023-09-10T16:30:07.367Z,95115.56
2023-09-10T16:33:17.815Z,95122.72
2023-09-10T16:36:29.805Z,95120.47
2023-09-10T16:39:38.360Z,95111.56
2023-09-10T16:42:46.884Z,95115.75
2023-09-10T16:45:55.895Z,95115.66
2023-09-10T16:49:06.794Z,95119.03
2023-09-10T16:52:15.631Z,95116.91
2023-09-10T16:55:24.344Z,95119.28
2023-09-10T16:58:33.022Z,95112.88
2023-09-10T17:01:41.764Z,95109.75
2023-09-10T17:04:51.793Z,95112.63
2023-09-10T17:08:05.693Z,95123.31
2023-09-10T17:11:15.607Z,95119.44
2023-09-10T17:14:24.170Z,95121.72
2023-09-10T17:17:38.962Z,95122.34
2023-09-10T17:20:49.187Z,95118.66
2023-09-10T17:23:57.893Z,95125.75
2023-09-10T17:27:07.754Z,95124.25
2023-09-10T17:30:16.375Z,95128.41
2023-09-10T17:33:25.471Z,95123.00
2023-09-10T17:36:35.431Z,95118.69
2023-09-10T17:39:44.031Z,95115.50
2023-09-10T17:42:52.757Z,95122.56
2023-09-10T17:46:01.292Z,95117.69
2023-09-10T17:49:09.815Z,95123.97
2023-09-10T17:52:19.973Z,95125.28
2023-09-10T17:55:29.836Z,95123.91
2023-09-10T17:58:38.905Z,95123.66
2023-09-10T18:01:47.657Z,95129.88
2023-09-10T18:04:56.364Z,95125.47
2023-09-10T18:08:07.787Z,95135.72
2023-09-10T18:11:17.241Z,95136.78
2023-09-10T18:14:25.956Z,95135.09
2023-09-10T18:17:36.187Z,95138.84
2023-09-10T18:20:45.316Z,95148.00
2023-09-10T18:23:55.343Z,95146.88
2023-09-10T18:27:04.474Z,95137.63
2023-09-10T18:30:14.251Z,95148.97
2023-09-10T18:33:22.783Z,95157.00
2023-09-10T18:36:31.437Z,95153.72
2023-09-10T18:39:41.338Z,95157.16
2023-09-10T18:42:50.088Z,95161.16
2023-09-10T18:45:58.652Z,95159.19
2023-09-10T18:49:07.316Z,95167.81
2023-09-10T18:52:18.735Z,95157.22
2023-09-10T18:55:28.793Z,95169.31
2023-09-10T18:58:37.657Z,95169.00
2023-09-10T19:01:46.609Z,95166.84
2023-09-10T19:04:55.210Z,95165.72
2023-09-10T19:08:07.022Z,95170.63
2023-09-10T19:11:17.039Z,95170.50
2023-09-10T19:14:26.557Z,95171.94
2023-09-10T19:17:35.293Z,95171.50
2023-09-10T19:20:46.523Z,95163.41
2023-09-10T19:23:55.232Z,95161.69
2023-09-10T19:27:05.400Z,95169.94
2023-09-10T19:30:14.589Z,95167.22
2023-09-10T19:33:23.522Z,95166.59
2023-09-10T19:36:34.517Z,95163.84
2023-09-10T19:39:43.190Z,95161.88
2023-09-10T19:42:53.135Z,95158.31
2023-09-10T19:46:04.357Z,95163.63
2023-09-10T19:49:13.004Z,95161.69
2023-09-10T19:52:21.619Z,95157.81
2023-09-10T19:55:31.267Z,95158.00
2023-09-10T19:58:41.560Z,95159.59
2023-09-10T20:01:50.988Z,95164.91
2023-09-10T20:04:59.716Z,95166.97
2023-09-10T20:08:08.590Z,95166.66
2023-09-10T20:11:18.271Z,95168.47
2023-09-10T20:14:31.869Z,95162.19
2023-09-10T20:17:41.436Z,95176.50
2023-09-10T20:20:50.147Z,95168.25
2023-09-10T20:23:58.759Z,95173.81
2023-09-10T20:27:07.407Z,95176.44
2023-09-10T20:30:17.294Z,95180.22
2023-09-10T20:33:26.151Z,95174.00
2023-09-10T20:36:34.871Z,95179.31
2023-09-10T20:39:43.865Z,95179.22
2023-09-10T20:42:52.913Z,95174.00
2023-09-10T20:46:02.841Z,95177.09
2023-09-10T20:49:13.824Z,95175.59
2023-09-10T20:52:22.500Z,95174.44
2023-09-10T20:55:32.542Z,95168.75
2023-09-10T20:58:41.099Z,95166.75
2023-09-10T21:01:51.181Z,95160.72
2023-09-10T21:04:59.952Z,95161.22
2023-09-10T21:08:09.243Z,95163.81
2023-09-10T21:11:18.463Z,95159.41
2023-09-10T21:14:40.979Z,95155.56
2023-09-10T21:17:51.009Z,95155.44
2023-09-10T21:20:59.700Z,95158.06
2023-09-10T21:24:09.364Z,95153.97
2023-09-10T21:27:18.025Z,95155.44
2023-09-10T21:30:30.034Z,95152.53
2023-09-10T21:33:40.908Z,95154.63
2023-09-10T21:36:49.939Z,95160.13
2023-09-10T21:39:58.417Z,95152.44
2023-09-10T21:43:07.486Z,95165.47
2023-09-10T21:46:16.092Z,95166.53
2023-09-10T21:49:26.560Z,95156.47
2023-09-10T21:52:35.613Z,95157.78
2023-09-10T21:55:44.165Z,95162.81
2023-09-10T21:58:53.482Z,95166.19
2023-09-10T22:02:03.221Z,95161.31
2023-09-10T22:05:13.159Z,95154.75
2023-09-10T22:08:23.270Z,95151.97
2023-09-10T22:11:32.010Z,95159.06
2023-09-10T22:14:40.920Z,95153.19
2023-09-10T22:17:50.727Z,95147.94
2023-09-10T22:21:00.722Z,95149.38
2023-09-10T22:24:09.554Z,95149.38
2023-09-10T22:27:18.132Z,95149.28
2023-09-10T22:30:26.643Z,95142.94
2023-09-10T22:33:35.172Z,95151.16
2023-09-10T22:36:45.041Z,95152.78
2023-09-10T22:39:54.870Z,95156.91
2023-09-10T22:43:03.842Z,95152.88
2023-09-10T22:46:12.494Z,95149.94
2023-09-10T22:49:21.078Z,95157.72
2023-09-10T22:52:31.717Z,95142.91
2023-09-10T22:55:40.236Z,95150.19
2023-09-10T22:58:48.889Z,95146.63
2023-09-10T23:01:57.742Z,95145.94
2023-09-10T23:05:06.850Z,95139.41
2023-09-10T23:08:16.808Z,95140.13
2023-09-10T23:11:25.498Z,95135.19
2023-09-10T23:14:34.178Z,95136.97
2023-09-10T23:17:44.582Z,95138.94
2023-09-10T23:20:54.778Z,95138.25
2023-09-10T23:24:05.240Z,95136.84
2023-09-10T23:27:13.915Z,95127.03
2023-09-10T23:30:22.574Z,95131.00
2023-09-10T23:33:31.764Z,95122.91
2023-09-10T23:36:40.442Z,95120.00
2023-09-10T23:39:50.325Z,95115.56
2023-09-10T23:42:58.871Z,95120.13
2023-09-10T23:46:07.648Z,95107.38
2023-09-10T23:49:16.242Z,95106.69
2023-09-10T23:52:25.646Z,95110.06
2023-09-10T23:55:35.625Z,95107.16
2023-09-10T23:58:45.800Z,95110.56
